sensor_id;sensor_type;location;lat;lon;timestamp;P1;durP1;ratioP1;P2;durP2;ratioP2
22284;SDS011;11311;52.192;20.900;2022-09-13T00:01:18;23.50;;;20.75;;
22284;SDS011;11311;52.192;20.900;2022-09-13T00:03:47;24.92;;;21.92;;
22284;SDS011;11311;52.192;20.900;2022-09-13T00:06:17;27.67;;;24.45;;
22284;SDS011;11311;52.192;20.900;2022-09-13T00:08:47;23.23;;;20.83;;
22284;SDS011;11311;52.192;20.900;2022-09-13T00:11:17;24.02;;;21.52;;
22284;SDS011;11311;52.192;20.900;2022-09-13T00:13:47;23.77;;;21.00;;
22284;SDS011;11311;52.192;20.900;2022-09-13T00:16:17;23.42;;;21.02;;
22284;SDS011;11311;52.192;20.900;2022-09-13T00:18:48;23.38;;;20.55;;
22284;SDS011;11311;52.192;20.900;2022-09-13T00:21:18;23.40;;;19.98;;
22284;SDS011;11311;52.192;20.900;2022-09-13T00:23:49;22.45;;;20.10;;
22284;SDS011;11311;52.192;20.900;2022-09-13T00:26:19;23.42;;;17.20;;
22284;SDS011;11311;52.192;20.900;2022-09-13T00:28:51;22.38;;;19.13;;
22284;SDS011;11311;52.192;20.900;2022-09-13T00:31:24;22.52;;;20.02;;
22284;SDS011;11311;52.192;20.900;2022-09-13T00:33:54;21.05;;;18.85;;
22284;SDS011;11311;52.192;20.900;2022-09-13T00:36:24;25.35;;;20.88;;
22284;SDS011;11311;52.192;20.900;2022-09-13T00:38:53;23.30;;;20.38;;
22284;SDS011;11311;52.192;20.900;2022-09-13T00:41:22;25.98;;;22.42;;
22284;SDS011;11311;52.192;20.900;2022-09-13T00:43:51;26.15;;;23.17;;
22284;SDS011;11311;52.192;20.900;2022-09-13T00:46:24;24.73;;;21.85;;
22284;SDS011;11311;52.192;20.900;2022-09-13T00:48:58;29.13;;;24.27;;
22284;SDS011;11311;52.192;20.900;2022-09-13T00:51:30;29.98;;;26.50;;
22284;SDS011;11311;52.192;20.900;2022-09-13T00:53:58;36.00;;;28.70;;
22284;SDS011;11311;52.192;20.900;2022-09-13T00:56:28;31.60;;;27.13;;
22284;SDS011;11311;52.192;20.900;2022-09-13T00:59:00;33.97;;;27.20;;
22284;SDS011;11311;52.192;20.900;2022-09-13T01:01:32;35.75;;;28.77;;
22284;SDS011;11311;52.192;20.900;2022-09-13T01:04:04;71.80;;;35.92;;
22284;SDS011;11311;52.192;20.900;2022-09-13T01:06:38;53.38;;;33.22;;
22284;SDS011;11311;52.192;20.900;2022-09-13T01:09:07;49.80;;;31.67;;
22284;SDS011;11311;52.192;20.900;2022-09-13T01:14:08;39.08;;;26.55;;
22284;SDS011;11311;52.192;20.900;2022-09-13T01:16:38;57.83;;;32.72;;
22284;SDS011;11311;52.192;20.900;2022-09-13T01:19:11;44.85;;;31.02;;
22284;SDS011;11311;52.192;20.900;2022-09-13T01:24:57;69.47;;;34.33;;
22284;SDS011;11311;52.192;20.900;2022-09-13T01:27:45;47.95;;;32.25;;
22284;SDS011;11311;52.192;20.900;2022-09-13T01:30:27;214.82;;;36.65;;
22284;SDS011;11311;52.192;20.900;2022-09-13T01:33:03;237.65;;;32.65;;
22284;SDS011;11311;52.192;20.900;2022-09-13T01:35:46;140.95;;;32.17;;
22284;SDS011;11311;52.192;20.900;2022-09-13T01:38:26;67.68;;;27.52;;
22284;SDS011;11311;52.192;20.900;2022-09-13T01:41:04;67.78;;;29.08;;
22284;SDS011;11311;52.192;20.900;2022-09-13T01:43:39;73.93;;;29.30;;
22284;SDS011;11311;52.192;20.900;2022-09-13T01:46:16;34.92;;;24.08;;
22284;SDS011;11311;52.192;20.900;2022-09-13T01:48:50;53.15;;;26.05;;
22284;SDS011;11311;52.192;20.900;2022-09-13T01:51:24;61.47;;;30.88;;
22284;SDS011;11311;52.192;20.900;2022-09-13T01:54:12;32.20;;;23.48;;
22284;SDS011;11311;52.192;20.900;2022-09-13T01:56:47;40.92;;;24.80;;
22284;SDS011;11311;52.192;20.900;2022-09-13T01:59:21;49.15;;;26.70;;
22284;SDS011;11311;52.192;20.900;2022-09-13T02:01:59;55.30;;;25.38;;
22284;SDS011;11311;52.192;20.900;2022-09-13T02:04:34;89.50;;;29.60;;
22284;SDS011;11311;52.192;20.900;2022-09-13T02:07:07;162.00;;;31.30;;
22284;SDS011;11311;52.192;20.900;2022-09-13T02:09:40;113.70;;;29.40;;
22284;SDS011;11311;52.192;20.900;2022-09-13T02:12:12;221.98;;;29.55;;
22284;SDS011;11311;52.192;20.900;2022-09-13T02:14:42;205.07;;;30.75;;
22284;SDS011;11311;52.192;20.900;2022-09-13T02:17:15;201.02;;;27.33;;
22284;SDS011;11311;52.192;20.900;2022-09-13T02:19:46;100.03;;;26.88;;
22284;SDS011;11311;52.192;20.900;2022-09-13T02:22:19;90.97;;;29.45;;
22284;SDS011;11311;52.192;20.900;2022-09-13T02:24:50;34.63;;;22.13;;
22284;SDS011;11311;52.192;20.900;2022-09-13T02:27:22;43.13;;;27.63;;
22284;SDS011;11311;52.192;20.900;2022-09-13T02:29:54;35.08;;;24.13;;
22284;SDS011;11311;52.192;20.900;2022-09-13T02:32:28;38.67;;;25.05;;
22284;SDS011;11311;52.192;20.900;2022-09-13T02:34:59;35.05;;;23.63;;
22284;SDS011;11311;52.192;20.900;2022-09-13T02:37:30;37.83;;;23.92;;
22284;SDS011;11311;52.192;20.900;2022-09-13T02:40:01;32.08;;;21.42;;
22284;SDS011;11311;52.192;20.900;2022-09-13T02:42:33;32.28;;;25.38;;
22284;SDS011;11311;52.192;20.900;2022-09-13T02:45:03;30.08;;;21.23;;
22284;SDS011;11311;52.192;20.900;2022-09-13T02:47:37;22.75;;;19.48;;
22284;SDS011;11311;52.192;20.900;2022-09-13T02:50:23;26.25;;;19.95;;
22284;SDS011;11311;52.192;20.900;2022-09-13T02:53:02;28.67;;;22.45;;
22284;SDS011;11311;52.192;20.900;2022-09-13T02:55:36;19.80;;;17.73;;
22284;SDS011;11311;52.192;20.900;2022-09-13T02:58:09;22.30;;;19.98;;
22284;SDS011;11311;52.192;20.900;2022-09-13T03:00:40;25.88;;;22.77;;
22284;SDS011;11311;52.192;20.900;2022-09-13T03:03:17;22.17;;;19.85;;
22284;SDS011;11311;52.192;20.900;2022-09-13T03:05:45;27.58;;;22.08;;
22284;SDS011;11311;52.192;20.900;2022-09-13T03:08:14;31.77;;;22.42;;
22284;SDS011;11311;52.192;20.900;2022-09-13T03:10:46;21.55;;;18.40;;
22284;SDS011;11311;52.192;20.900;2022-09-13T03:13:27;21.58;;;19.20;;
22284;SDS011;11311;52.192;20.900;2022-09-13T03:16:04;20.17;;;18.05;;
22284;SDS011;11311;52.192;20.900;2022-09-13T03:18:44;25.08;;;20.05;;
22284;SDS011;11311;52.192;20.900;2022-09-13T03:21:23;22.08;;;19.73;;
22284;SDS011;11311;52.192;20.900;2022-09-13T03:24:00;24.38;;;19.60;;
22284;SDS011;11311;52.192;20.900;2022-09-13T03:26:35;24.58;;;21.15;;
22284;SDS011;11311;52.192;20.900;2022-09-13T03:29:14;25.05;;;22.30;;
22284;SDS011;11311;52.192;20.900;2022-09-13T03:31:52;25.70;;;20.55;;
22284;SDS011;11311;52.192;20.900;2022-09-13T03:34:28;23.90;;;20.65;;
22284;SDS011;11311;52.192;20.900;2022-09-13T03:37:01;28.65;;;21.55;;
22284;SDS011;11311;52.192;20.900;2022-09-13T03:39:34;28.58;;;23.15;;
22284;SDS011;11311;52.192;20.900;2022-09-13T03:42:08;23.67;;;19.92;;
22284;SDS011;11311;52.192;20.900;2022-09-13T03:44:41;21.67;;;19.10;;
22284;SDS011;11311;52.192;20.900;2022-09-13T03:47:12;28.83;;;20.95;;
22284;SDS011;11311;52.192;20.900;2022-09-13T03:49:42;22.23;;;19.92;;
22284;SDS011;11311;52.192;20.900;2022-09-13T03:52:12;20.58;;;18.27;;
22284;SDS011;11311;52.192;20.900;2022-09-13T03:54:41;21.77;;;19.10;;
22284;SDS011;11311;52.192;20.900;2022-09-13T03:57:10;20.80;;;18.05;;
22284;SDS011;11311;52.192;20.900;2022-09-13T03:59:41;21.27;;;19.00;;
22284;SDS011;11311;52.192;20.900;2022-09-13T04:02:11;22.20;;;18.85;;
22284;SDS011;11311;52.192;20.900;2022-09-13T04:04:41;21.30;;;18.48;;
22284;SDS011;11311;52.192;20.900;2022-09-13T04:07:12;20.08;;;16.20;;
22284;SDS011;11311;52.192;20.900;2022-09-13T04:09:42;20.35;;;18.20;;
22284;SDS011;11311;52.192;20.900;2022-09-13T04:12:11;22.63;;;18.03;;
22284;SDS011;11311;52.192;20.900;2022-09-13T04:14:41;33.75;;;20.08;;
22284;SDS011;11311;52.192;20.900;2022-09-13T04:17:10;21.17;;;18.80;;
22284;SDS011;11311;52.192;20.900;2022-09-13T04:19:39;19.65;;;17.65;;
22284;SDS011;11311;52.192;20.900;2022-09-13T04:22:09;23.05;;;20.60;;
22284;SDS011;11311;52.192;20.900;2022-09-13T04:24:38;21.05;;;18.83;;
22284;SDS011;11311;52.192;20.900;2022-09-13T04:27:07;24.80;;;18.35;;
22284;SDS011;11311;52.192;20.900;2022-09-13T04:29:35;17.85;;;15.93;;
22284;SDS011;11311;52.192;20.900;2022-09-13T04:32:04;26.15;;;20.90;;
22284;SDS011;11311;52.192;20.900;2022-09-13T04:34:33;22.23;;;18.35;;
22284;SDS011;11311;52.192;20.900;2022-09-13T04:37:01;26.88;;;17.65;;
22284;SDS011;11311;52.192;20.900;2022-09-13T04:39:32;20.35;;;18.35;;
22284;SDS011;11311;52.192;20.900;2022-09-13T04:42:00;20.63;;;17.85;;
22284;SDS011;11311;52.192;20.900;2022-09-13T04:44:29;21.73;;;17.60;;
22284;SDS011;11311;52.192;20.900;2022-09-13T04:46:58;20.60;;;16.85;;
22284;SDS011;11311;52.192;20.900;2022-09-13T04:49:27;18.58;;;16.02;;
22284;SDS011;11311;52.192;20.900;2022-09-13T04:51:55;17.95;;;16.15;;
22284;SDS011;11311;52.192;20.900;2022-09-13T04:54:24;20.45;;;18.23;;
22284;SDS011;11311;52.192;20.900;2022-09-13T04:56:54;16.60;;;14.93;;
22284;SDS011;11311;52.192;20.900;2022-09-13T05:01:52;18.80;;;16.90;;
22284;SDS011;11311;52.192;20.900;2022-09-13T05:04:20;23.35;;;18.67;;
22284;SDS011;11311;52.192;20.900;2022-09-13T05:06:49;26.42;;;17.73;;
22284;SDS011;11311;52.192;20.900;2022-09-13T05:09:18;18.20;;;15.80;;
22284;SDS011;11311;52.192;20.900;2022-09-13T05:11:47;20.35;;;17.52;;
22284;SDS011;11311;52.192;20.900;2022-09-13T05:14:17;24.73;;;17.08;;
22284;SDS011;11311;52.192;20.900;2022-09-13T05:16:45;20.30;;;16.55;;
22284;SDS011;11311;52.192;20.900;2022-09-13T05:19:14;18.90;;;15.88;;
22284;SDS011;11311;52.192;20.900;2022-09-13T05:21:42;21.70;;;17.05;;
22284;SDS011;11311;52.192;20.900;2022-09-13T05:24:11;24.42;;;17.42;;
22284;SDS011;11311;52.192;20.900;2022-09-13T05:26:40;20.40;;;16.58;;
22284;SDS011;11311;52.192;20.900;2022-09-13T05:29:08;21.88;;;16.70;;
22284;SDS011;11311;52.192;20.900;2022-09-13T05:31:39;26.45;;;16.95;;
22284;SDS011;11311;52.192;20.900;2022-09-13T05:34:09;26.27;;;17.73;;
22284;SDS011;11311;52.192;20.900;2022-09-13T05:36:39;21.38;;;15.65;;
22284;SDS011;11311;52.192;20.900;2022-09-13T05:39:11;22.70;;;15.02;;
22284;SDS011;11311;52.192;20.900;2022-09-13T05:42:00;17.48;;;15.63;;
22284;SDS011;11311;52.192;20.900;2022-09-13T05:44:29;26.83;;;17.02;;
22284;SDS011;11311;52.192;20.900;2022-09-13T05:46:59;17.95;;;14.95;;
22284;SDS011;11311;52.192;20.900;2022-09-13T05:49:27;22.53;;;16.37;;
22284;SDS011;11311;52.192;20.900;2022-09-13T05:51:56;23.77;;;15.48;;
22284;SDS011;11311;52.192;20.900;2022-09-13T05:54:24;19.13;;;15.93;;
22284;SDS011;11311;52.192;20.900;2022-09-13T05:56:53;23.38;;;16.27;;
22284;SDS011;11311;52.192;20.900;2022-09-13T05:59:23;19.83;;;16.65;;
22284;SDS011;11311;52.192;20.900;2022-09-13T06:01:51;20.73;;;17.40;;
22284;SDS011;11311;52.192;20.900;2022-09-13T06:04:21;21.17;;;17.58;;
22284;SDS011;11311;52.192;20.900;2022-09-13T06:06:50;21.88;;;17.38;;
22284;SDS011;11311;52.192;20.900;2022-09-13T06:09:19;25.90;;;18.65;;
22284;SDS011;11311;52.192;20.900;2022-09-13T06:11:48;27.95;;;17.70;;
22284;SDS011;11311;52.192;20.900;2022-09-13T06:14:16;25.10;;;16.10;;
22284;SDS011;11311;52.192;20.900;2022-09-13T06:16:45;18.95;;;14.68;;
22284;SDS011;11311;52.192;20.900;2022-09-13T06:19:13;21.30;;;17.52;;
22284;SDS011;11311;52.192;20.900;2022-09-13T06:21:43;18.67;;;15.50;;
22284;SDS011;11311;52.192;20.900;2022-09-13T06:24:12;25.60;;;16.13;;
22284;SDS011;11311;52.192;20.900;2022-09-13T06:26:41;21.23;;;16.65;;
22284;SDS011;11311;52.192;20.900;2022-09-13T06:29:09;16.67;;;15.00;;
22284;SDS011;11311;52.192;20.900;2022-09-13T06:31:38;16.45;;;14.82;;
22284;SDS011;11311;52.192;20.900;2022-09-13T06:34:11;19.15;;;14.30;;
22284;SDS011;11311;52.192;20.900;2022-09-13T06:36:41;21.25;;;14.45;;
22284;SDS011;11311;52.192;20.900;2022-09-13T06:39:11;24.08;;;15.23;;
22284;SDS011;11311;52.192;20.900;2022-09-13T06:41:40;17.98;;;15.43;;
22284;SDS011;11311;52.192;20.900;2022-09-13T06:44:09;21.83;;;14.60;;
22284;SDS011;11311;52.192;20.900;2022-09-13T06:46:38;15.80;;;14.30;;
22284;SDS011;11311;52.192;20.900;2022-09-13T06:49:08;23.85;;;13.82;;
22284;SDS011;11311;52.192;20.900;2022-09-13T06:51:37;16.52;;;14.60;;
22284;SDS011;11311;52.192;20.900;2022-09-13T06:54:05;23.70;;;14.82;;
22284;SDS011;11311;52.192;20.900;2022-09-13T06:56:36;18.63;;;14.32;;
22284;SDS011;11311;52.192;20.900;2022-09-13T06:59:06;16.10;;;14.48;;
22284;SDS011;11311;52.192;20.900;2022-09-13T07:01:35;17.70;;;14.02;;
22284;SDS011;11311;52.192;20.900;2022-09-13T07:04:06;14.90;;;13.27;;
22284;SDS011;11311;52.192;20.900;2022-09-13T07:09:05;15.48;;;12.43;;
22284;SDS011;11311;52.192;20.900;2022-09-13T07:11:38;14.25;;;12.30;;
22284;SDS011;11311;52.192;20.900;2022-09-13T07:14:07;12.90;;;9.68;;
22284;SDS011;11311;52.192;20.900;2022-09-13T07:16:38;9.70;;;8.70;;
22284;SDS011;11311;52.192;20.900;2022-09-13T07:19:10;10.00;;;9.00;;
22284;SDS011;11311;52.192;20.900;2022-09-13T07:21:40;12.85;;;8.85;;
22284;SDS011;11311;52.192;20.900;2022-09-13T07:24:10;10.02;;;7.88;;
22284;SDS011;11311;52.192;20.900;2022-09-13T07:26:40;9.68;;;7.20;;
22284;SDS011;11311;52.192;20.900;2022-09-13T07:29:10;25.55;;;7.60;;
22284;SDS011;11311;52.192;20.900;2022-09-13T07:31:41;10.05;;;7.55;;
22284;SDS011;11311;52.192;20.900;2022-09-13T07:34:12;14.30;;;8.55;;
22284;SDS011;11311;52.192;20.900;2022-09-13T07:39:10;10.20;;;8.10;;
22284;SDS011;11311;52.192;20.900;2022-09-13T07:41:44;9.75;;;8.68;;
22284;SDS011;11311;52.192;20.900;2022-09-13T07:44:14;11.60;;;7.40;;
22284;SDS011;11311;52.192;20.900;2022-09-13T07:46:42;7.43;;;6.05;;
22284;SDS011;11311;52.192;20.900;2022-09-13T07:49:11;10.57;;;5.63;;
22284;SDS011;11311;52.192;20.900;2022-09-13T07:51:41;6.55;;;5.53;;
22284;SDS011;11311;52.192;20.900;2022-09-13T07:54:11;5.82;;;5.20;;
22284;SDS011;11311;52.192;20.900;2022-09-13T07:56:41;7.22;;;4.35;;
22284;SDS011;11311;52.192;20.900;2022-09-13T07:59:12;6.53;;;4.50;;
22284;SDS011;11311;52.192;20.900;2022-09-13T08:01:42;8.90;;;3.65;;
22284;SDS011;11311;52.192;20.900;2022-09-13T08:04:12;6.97;;;4.03;;
22284;SDS011;11311;52.192;20.900;2022-09-13T08:06:46;7.93;;;3.22;;
22284;SDS011;11311;52.192;20.900;2022-09-13T08:09:15;3.60;;;3.13;;
22284;SDS011;11311;52.192;20.900;2022-09-13T08:11:45;4.03;;;2.72;;
22284;SDS011;11311;52.192;20.900;2022-09-13T08:14:17;2.95;;;2.50;;
22284;SDS011;11311;52.192;20.900;2022-09-13T08:16:46;3.53;;;2.03;;
22284;SDS011;11311;52.192;20.900;2022-09-13T08:19:16;2.58;;;1.60;;
22284;SDS011;11311;52.192;20.900;2022-09-13T08:21:45;5.05;;;2.10;;
22284;SDS011;11311;52.192;20.900;2022-09-13T08:24:15;7.70;;;1.90;;
22284;SDS011;11311;52.192;20.900;2022-09-13T08:26:45;7.40;;;2.53;;
22284;SDS011;11311;52.192;20.900;2022-09-13T08:29:13;3.08;;;2.00;;
22284;SDS011;11311;52.192;20.900;2022-09-13T08:31:43;3.92;;;2.17;;
22284;SDS011;11311;52.192;20.900;2022-09-13T08:34:13;3.33;;;2.15;;
22284;SDS011;11311;52.192;20.900;2022-09-13T08:36:42;4.63;;;2.30;;
22284;SDS011;11311;52.192;20.900;2022-09-13T08:39:12;2.70;;;1.73;;
22284;SDS011;11311;52.192;20.900;2022-09-13T08:44:43;2.67;;;1.92;;
22284;SDS011;11311;52.192;20.900;2022-09-13T08:50:11;1.98;;;1.70;;
22284;SDS011;11311;52.192;20.900;2022-09-13T08:52:46;5.50;;;1.83;;
22284;SDS011;11311;52.192;20.900;2022-09-13T08:55:22;2.83;;;2.25;;
22284;SDS011;11311;52.192;20.900;2022-09-13T08:57:54;4.72;;;2.30;;
22284;SDS011;11311;52.192;20.900;2022-09-13T09:00:29;2.83;;;1.75;;
22284;SDS011;11311;52.192;20.900;2022-09-13T09:03:11;6.18;;;1.95;;
22284;SDS011;11311;52.192;20.900;2022-09-13T09:05:47;3.28;;;1.75;;
22284;SDS011;11311;52.192;20.900;2022-09-13T09:08:20;3.20;;;1.85;;
22284;SDS011;11311;52.192;20.900;2022-09-13T09:10:54;3.90;;;1.88;;
22284;SDS011;11311;52.192;20.900;2022-09-13T09:13:25;3.55;;;1.88;;
22284;SDS011;11311;52.192;20.900;2022-09-13T09:15:57;2.35;;;1.75;;
22284;SDS011;11311;52.192;20.900;2022-09-13T09:18:29;6.32;;;1.85;;
22284;SDS011;11311;52.192;20.900;2022-09-13T09:21:00;3.15;;;1.98;;
22284;SDS011;11311;52.192;20.900;2022-09-13T09:23:30;1.92;;;1.70;;
22284;SDS011;11311;52.192;20.900;2022-09-13T09:26:12;1.85;;;1.63;;
22284;SDS011;11311;52.192;20.900;2022-09-13T09:28:42;2.08;;;1.80;;
22284;SDS011;11311;52.192;20.900;2022-09-13T09:31:12;4.50;;;1.95;;
22284;SDS011;11311;52.192;20.900;2022-09-13T09:33:48;4.72;;;1.80;;
22284;SDS011;11311;52.192;20.900;2022-09-13T09:36:25;6.05;;;2.40;;
22284;SDS011;11311;52.192;20.900;2022-09-13T09:38:57;4.03;;;1.83;;
22284;SDS011;11311;52.192;20.900;2022-09-13T09:41:26;4.45;;;2.53;;
22284;SDS011;11311;52.192;20.900;2022-09-13T09:43:58;3.58;;;1.63;;
22284;SDS011;11311;52.192;20.900;2022-09-13T09:46:31;2.42;;;1.63;;
22284;SDS011;11311;52.192;20.900;2022-09-13T09:49:03;7.25;;;2.20;;
22284;SDS011;11311;52.192;20.900;2022-09-13T09:51:57;2.45;;;1.40;;
22284;SDS011;11311;52.192;20.900;2022-09-13T09:54:27;5.47;;;1.80;;
22284;SDS011;11311;52.192;20.900;2022-09-13T09:56:57;3.90;;;1.60;;
22284;SDS011;11311;52.192;20.900;2022-09-13T09:59:26;1.65;;;1.38;;
22284;SDS011;11311;52.192;20.900;2022-09-13T10:01:57;2.25;;;1.23;;
22284;SDS011;11311;52.192;20.900;2022-09-13T10:04:27;1.90;;;1.55;;
22284;SDS011;11311;52.192;20.900;2022-09-13T10:07:09;3.40;;;1.65;;
22284;SDS011;11311;52.192;20.900;2022-09-13T10:09:51;4.57;;;1.80;;
22284;SDS011;11311;52.192;20.900;2022-09-13T10:12:30;4.10;;;1.75;;
22284;SDS011;11311;52.192;20.900;2022-09-13T10:15:04;6.95;;;2.50;;
22284;SDS011;11311;52.192;20.900;2022-09-13T10:17:37;2.47;;;1.38;;
22284;SDS011;11311;52.192;20.900;2022-09-13T10:20:19;3.05;;;1.90;;
22284;SDS011;11311;52.192;20.900;2022-09-13T10:25:44;4.03;;;1.75;;
22284;SDS011;11311;52.192;20.900;2022-09-13T10:28:22;5.13;;;1.63;;
22284;SDS011;11311;52.192;20.900;2022-09-13T10:30:52;4.45;;;1.45;;
